createdAt,value
2018-08-13T05:00:06.131Z,65.60
2018-08-13T05:00:39.163Z,65.70
2018-08-13T05:01:12.307Z,65.90
2018-08-13T05:01:45.342Z,66.20
2018-08-13T05:02:18.376Z,66.20
2018-08-13T05:02:51.399Z,66.20
2018-08-13T05:03:24.443Z,66.00
2018-08-13T05:03:57.475Z,65.90
2018-08-13T05:04:30.522Z,65.90
2018-08-13T05:05:03.578Z,65.70
2018-08-13T05:05:36.618Z,65.70
2018-08-13T05:06:09.630Z,65.60
2018-08-13T05:06:42.659Z,65.50
2018-08-13T05:07:15.726Z,65.50
2018-08-13T05:07:48.750Z,65.60
2018-08-13T05:08:22.572Z,65.60
2018-08-13T05:08:55.623Z,65.50
2018-08-13T05:09:28.685Z,65.60
2018-08-13T05:10:01.741Z,65.60
2018-08-13T05:10:34.767Z,65.60
2018-08-13T05:11:08.564Z,65.70
2018-08-13T05:11:41.608Z,65.80
2018-08-13T05:12:14.623Z,65.70
2018-08-13T05:12:47.660Z,65.40
2018-08-13T05:13:20.704Z,65.60
2018-08-13T05:13:54.533Z,65.50
2018-08-13T05:14:27.575Z,65.50
2018-08-13T05:15:00.644Z,65.40
2018-08-13T05:15:34.443Z,65.50
2018-08-13T05:16:08.243Z,65.40
2018-08-13T05:16:41.272Z,65.40
2018-08-13T05:17:14.423Z,65.50
2018-08-13T05:17:47.455Z,65.40
2018-08-13T05:18:20.520Z,65.40
2018-08-13T05:18:53.556Z,65.60
2018-08-13T05:19:26.617Z,65.50
2018-08-13T05:19:59.654Z,65.50
2018-08-13T05:20:33.449Z,65.50
2018-08-13T05:21:06.537Z,65.50
2018-08-13T05:21:39.522Z,65.40
2018-08-13T05:22:12.561Z,65.50
2018-08-13T05:22:46.364Z,65.60
2018-08-13T05:23:20.416Z,65.50
2018-08-13T05:23:53.465Z,65.50
2018-08-13T05:24:26.508Z,65.40
2018-08-13T05:25:00.339Z,65.50
2018-08-13T05:25:33.363Z,65.50
2018-08-13T05:26:06.403Z,65.40
2018-08-13T05:26:39.441Z,65.40
2018-08-13T05:27:12.463Z,65.40
2018-08-13T05:27:45.496Z,65.40
2018-08-13T05:28:18.577Z,65.40
2018-08-13T05:28:51.615Z,65.40
2018-08-13T05:29:25.429Z,65.40
2018-08-13T05:29:58.821Z,65.30
2018-08-13T05:30:31.913Z,65.10
2018-08-13T05:31:04.955Z,65.10
2018-08-13T05:31:38.000Z,65.20
2018-08-13T05:32:11.047Z,65.20
2018-08-13T05:32:44.087Z,65.30
2018-08-13T05:33:17.116Z,65.20
2018-08-13T05:33:50.176Z,65.30
2018-08-13T05:34:23.211Z,65.40
2018-08-13T05:34:56.260Z,65.60
2018-08-13T05:35:29.305Z,65.50
2018-08-13T05:36:02.475Z,65.60
2018-08-13T05:36:35.505Z,65.60
2018-08-13T05:37:08.547Z,65.60
2018-08-13T05:37:41.590Z,65.50
2018-08-13T05:38:14.671Z,65.50
2018-08-13T05:38:48.455Z,65.40
2018-08-13T05:39:21.483Z,65.40
2018-08-13T05:39:55.289Z,65.10
2018-08-13T05:40:29.088Z,65.00
2018-08-13T05:41:02.126Z,65.00
2018-08-13T05:41:35.155Z,64.90
2018-08-13T05:42:08.204Z,64.60
2018-08-13T05:42:41.231Z,64.60
2018-08-13T05:43:14.389Z,64.80
2018-08-13T05:43:47.426Z,64.80
2018-08-13T05:44:20.482Z,64.80
2018-08-13T05:44:53.576Z,64.70
2018-08-13T05:45:26.591Z,64.50
2018-08-13T05:45:59.628Z,64.40
2018-08-13T05:46:33.423Z,64.10
2018-08-13T05:47:07.219Z,64.10
2018-08-13T05:47:40.269Z,64.00
2018-08-13T05:48:13.304Z,63.70
2018-08-13T05:48:46.339Z,63.90
2018-08-13T05:49:20.163Z,63.80
2018-08-13T05:49:53.229Z,63.80
2018-08-13T05:50:26.309Z,63.60
2018-08-13T05:50:59.340Z,63.60
2018-08-13T05:51:32.387Z,63.70
2018-08-13T05:52:05.432Z,64.00
2018-08-13T05:52:38.457Z,64.20
2018-08-13T05:53:11.516Z,64.30
2018-08-13T05:53:44.552Z,64.30
2018-08-13T05:54:17.615Z,64.40
2018-08-13T05:54:50.646Z,64.40
2018-08-13T05:55:23.690Z,64.50
2018-08-13T05:55:56.715Z,64.30
2018-08-13T05:56:29.743Z,64.40
2018-08-13T05:57:03.563Z,64.60
2018-08-13T05:57:36.604Z,64.50
2018-08-13T05:58:09.630Z,64.60
2018-08-13T05:58:43.435Z,64.80
2018-08-13T05:59:16.485Z,64.60
2018-08-13T05:59:49.530Z,64.80
2018-08-13T06:00:22.567Z,65.30
2018-08-13T06:00:55.633Z,65.20
2018-08-13T06:01:29.437Z,64.90
2018-08-13T06:02:03.246Z,65.10
2018-08-13T06:02:36.275Z,65.00
2018-08-13T06:03:09.387Z,65.00
2018-08-13T06:03:42.347Z,65.30
2018-08-13T06:04:15.409Z,65.80
2018-08-13T06:04:49.323Z,65.30
2018-08-13T06:05:23.208Z,65.30
2018-08-13T06:05:56.302Z,65.30
2018-08-13T06:06:29.330Z,65.70
2018-08-13T06:07:02.364Z,66.40
2018-08-13T06:07:35.407Z,65.70
2018-08-13T06:08:09.225Z,66.20
2018-08-13T06:08:42.276Z,66.10
2018-08-13T06:09:15.305Z,66.10
2018-08-13T06:09:49.111Z,65.70
2018-08-13T06:10:22.141Z,65.80
2018-08-13T06:10:55.183Z,66.50
2018-08-13T06:11:28.981Z,67.10
2018-08-13T06:12:02.060Z,67.00
2018-08-13T06:12:35.852Z,68.30
2018-08-13T06:13:09.655Z,69.30
2018-08-13T06:13:42.704Z,69.20
2018-08-13T06:14:16.503Z,68.70
2018-08-13T06:14:49.531Z,68.70
2018-08-13T06:15:22.576Z,69.70
2018-08-13T06:15:55.614Z,71.00
2018-08-13T06:16:28.644Z,70.40
2018-08-13T06:17:01.666Z,72.00
2018-08-13T06:17:35.461Z,71.30
2018-08-13T06:18:08.538Z,72.00
2018-08-13T06:18:41.532Z,72.40
2018-08-13T06:19:14.581Z,73.00
2018-08-13T06:19:47.597Z,73.30
2018-08-13T06:20:20.638Z,73.50
2018-08-13T06:20:53.693Z,73.20
2018-08-13T06:21:26.743Z,74.90
2018-08-13T06:21:59.775Z,75.10
2018-08-13T06:22:32.817Z,75.00
2018-08-13T06:23:05.861Z,75.20
2018-08-13T06:23:39.040Z,76.10
2018-08-13T06:24:12.083Z,76.10
2018-08-13T06:24:45.172Z,76.60
2018-08-13T06:25:18.207Z,77.20
2018-08-13T06:25:51.248Z,76.60
2018-08-13T06:26:25.352Z,76.70
2018-08-13T06:26:58.356Z,76.50
2018-08-13T06:27:31.381Z,76.20
2018-08-13T06:28:04.435Z,76.60
2018-08-13T06:28:37.484Z,77.90
2018-08-13T06:29:10.540Z,77.80
2018-08-13T06:29:43.568Z,78.10
2018-08-13T06:30:16.768Z,78.00
2018-08-13T06:30:49.788Z,77.90
2018-08-13T06:31:22.828Z,78.60
2018-08-13T06:31:55.895Z,78.60
2018-08-13T06:32:28.937Z,78.50
2018-08-13T06:33:01.968Z,78.90
2018-08-13T06:33:35.006Z,79.60
2018-08-13T06:34:08.088Z,79.50
2018-08-13T06:34:41.114Z,79.70
2018-08-13T06:35:14.134Z,79.80
2018-08-13T06:35:47.313Z,79.90
2018-08-13T06:36:20.507Z,80.10
2018-08-13T06:36:53.552Z,79.90
2018-08-13T06:37:26.605Z,80.10
2018-08-13T06:38:00.403Z,80.10
2018-08-13T06:38:33.431Z,80.10
2018-08-13T06:39:06.595Z,80.10
2018-08-13T06:39:39.631Z,80.60
2018-08-13T06:40:12.679Z,80.90
2018-08-13T06:40:45.708Z,81.20
2018-08-13T06:41:18.740Z,81.10
2018-08-13T06:41:51.767Z,81.60
2018-08-13T06:42:24.812Z,81.10
2018-08-13T06:42:58.612Z,81.20
2018-08-13T06:43:31.655Z,81.30
2018-08-13T06:44:04.691Z,81.20
2018-08-13T06:44:38.488Z,81.30
2018-08-13T06:45:11.536Z,81.30
2018-08-13T06:45:44.568Z,81.50
2018-08-13T06:46:17.607Z,81.10
2018-08-13T06:46:50.649Z,81.80
2018-08-13T06:47:23.676Z,81.60
2018-08-13T06:47:56.715Z,81.60
2018-08-13T06:48:29.764Z,81.70
2018-08-13T06:49:02.818Z,82.10
2018-08-13T06:49:35.839Z,81.70
2018-08-13T06:50:08.867Z,82.10
2018-08-13T06:50:42.665Z,82.40
2018-08-13T06:51:16.481Z,81.70
2018-08-13T06:51:49.524Z,81.80
2018-08-13T06:52:22.559Z,82.00
2018-08-13T06:52:55.591Z,82.30
2018-08-13T06:53:28.620Z,82.20
2018-08-13T06:54:01.687Z,81.80
2018-08-13T06:54:34.737Z,81.80
2018-08-13T06:55:07.768Z,82.40
2018-08-13T06:55:40.994Z,81.60
2018-08-13T06:56:14.039Z,81.90
2018-08-13T06:56:47.838Z,82.60
2018-08-13T06:57:21.064Z,82.60
2018-08-13T06:57:54.104Z,82.90
2018-08-13T06:58:27.143Z,82.90
2018-08-13T06:59:00.959Z,83.80
2018-08-13T06:59:33.982Z,83.10
2018-08-13T07:00:07.006Z,83.00
2018-08-13T07:00:40.125Z,83.20
2018-08-13T07:01:13.900Z,82.80
2018-08-13T07:01:46.928Z,82.80
2018-08-13T07:02:20.721Z,82.90
2018-08-13T07:02:53.763Z,82.90
2018-08-13T07:03:26.803Z,83.00
2018-08-13T07:03:59.851Z,83.10
2018-08-13T07:04:33.640Z,83.00
2018-08-13T07:05:07.455Z,83.00
2018-08-13T07:05:40.488Z,83.00
2018-08-13T07:06:13.583Z,83.10
2018-08-13T07:06:46.567Z,83.10
2018-08-13T07:07:19.595Z,82.90
2018-08-13T07:07:53.125Z,83.40
2018-08-13T07:08:26.121Z,83.00
2018-08-13T07:08:59.152Z,82.80
2018-08-13T07:09:32.612Z,83.20
2018-08-13T07:10:05.669Z,82.50
2018-08-13T07:10:38.734Z,82.90
2018-08-13T07:11:11.908Z,83.10
2018-08-13T07:11:45.097Z,83.00
2018-08-13T07:12:18.134Z,82.90
2018-08-13T07:12:51.172Z,83.10
2018-08-13T07:13:24.195Z,83.90
2018-08-13T07:13:57.215Z,83.20
2018-08-13T07:14:30.260Z,83.00
2018-08-13T07:15:03.315Z,83.20
2018-08-13T07:15:36.416Z,83.30
2018-08-13T07:16:09.395Z,83.30
2018-08-13T07:16:42.420Z,83.30
2018-08-13T07:17:16.248Z,84.10
2018-08-13T07:17:49.465Z,83.30
2018-08-13T07:18:23.271Z,83.40
2018-08-13T07:18:56.415Z,83.40
2018-08-13T07:19:29.473Z,83.20
2018-08-13T07:20:03.276Z,83.30
2018-08-13T07:20:36.296Z,83.30
2018-08-13T07:21:09.340Z,83.80
2018-08-13T07:21:42.368Z,83.70
2018-08-13T07:22:15.515Z,83.40
2018-08-13T07:22:48.457Z,84.00
2018-08-13T07:23:21.484Z,84.00
2018-08-13T07:23:54.552Z,83.90
2018-08-13T07:24:27.600Z,83.80
2018-08-13T07:25:00.660Z,84.10
2018-08-13T07:25:33.687Z,83.90
2018-08-13T07:26:07.507Z,83.80
2018-08-13T07:26:40.549Z,83.90
2018-08-13T07:27:14.359Z,84.30
2018-08-13T07:27:47.448Z,84.40
2018-08-13T07:28:20.454Z,84.30
2018-08-13T07:28:53.580Z,84.10
2018-08-13T07:29:26.595Z,84.20
2018-08-13T07:29:59.624Z,84.50
2018-08-13T07:30:33.471Z,84.60
2018-08-13T07:31:06.515Z,84.60
2018-08-13T07:31:39.539Z,84.60
2018-08-13T07:32:12.600Z,84.70
2018-08-13T07:32:45.640Z,84.70
2018-08-13T07:33:18.822Z,84.50
2018-08-13T07:33:51.976Z,84.70
2018-08-13T07:34:25.015Z,84.70
2018-08-13T07:34:58.044Z,84.80
2018-08-13T07:35:31.088Z,85.00
2018-08-13T07:36:04.875Z,85.50
2018-08-13T07:36:38.671Z,85.50
2018-08-13T07:37:12.498Z,85.60
2018-08-13T07:37:45.537Z,85.50
2018-08-13T07:38:18.578Z,85.70
2018-08-13T07:38:51.681Z,85.50
2018-08-13T07:39:24.735Z,85.50
2018-08-13T07:39:58.485Z,85.50
2018-08-13T07:40:31.527Z,85.50
2018-08-13T07:41:05.326Z,85.30
2018-08-13T07:41:39.125Z,85.00
2018-08-13T07:42:12.924Z,85.50
2018-08-13T07:42:45.975Z,85.40
2018-08-13T07:43:19.111Z,85.40
2018-08-13T07:43:52.131Z,85.00
2018-08-13T07:44:25.175Z,85.10
2018-08-13T07:44:58.990Z,85.40
2018-08-13T07:45:32.027Z,85.40
2018-08-13T07:46:05.054Z,85.70
2018-08-13T07:46:38.211Z,86.70
2018-08-13T07:47:11.163Z,85.60
2018-08-13T07:47:44.187Z,85.50
2018-08-13T07:48:17.227Z,85.60
2018-08-13T07:48:50.271Z,85.60
2018-08-13T07:49:24.727Z,85.60
2018-08-13T07:49:57.735Z,85.70
2018-08-13T07:50:30.767Z,86.50
2018-08-13T07:51:03.815Z,85.80
2018-08-13T07:51:36.867Z,86.10
2018-08-13T07:52:09.869Z,86.20
2018-08-13T07:52:42.923Z,86.20
2018-08-13T07:53:15.964Z,86.30
2018-08-13T07:53:49.057Z,86.30
2018-08-13T07:54:22.099Z,86.40
2018-08-13T07:54:55.943Z,86.20
2018-08-13T07:55:28.991Z,86.20
2018-08-13T07:56:02.025Z,86.30
2018-08-13T07:56:35.067Z,86.40
2018-08-13T07:57:08.140Z,86.40
2018-08-13T07:57:41.170Z,86.10
2018-08-13T07:58:14.229Z,86.10
2018-08-13T07:58:47.274Z,86.10
2018-08-13T07:59:20.304Z,85.90
2018-08-13T07:59:53.418Z,86.20
2018-08-13T08:00:26.387Z,86.40
2018-08-13T08:00:59.422Z,86.50
2018-08-13T08:01:32.476Z,86.70
2018-08-13T08:02:05.509Z,86.90
2018-08-13T08:02:38.548Z,86.90
2018-08-13T08:03:12.364Z,87.00
2018-08-13T08:03:45.396Z,87.10
2018-08-13T08:04:18.428Z,87.20
2018-08-13T08:04:51.475Z,87.10
2018-08-13T08:05:24.533Z,87.20
2018-08-13T08:05:58.340Z,86.60
2018-08-13T08:06:31.382Z,86.60
2018-08-13T08:07:04.436Z,86.80
2018-08-13T08:07:37.460Z,87.30
2018-08-13T08:08:11.253Z,86.50
2018-08-13T08:08:44.296Z,86.50
2018-08-13T08:09:17.420Z,86.30
2018-08-13T08:09:51.189Z,85.70
2018-08-13T08:10:24.230Z,86.00
2018-08-13T08:10:57.264Z,86.90
2018-08-13T08:11:30.312Z,87.40
2018-08-13T08:12:04.116Z,87.30
2018-08-13T08:12:37.142Z,87.20
2018-08-13T08:13:10.183Z,87.40
2018-08-13T08:13:43.222Z,87.40
2018-08-13T08:14:17.015Z,87.70
2018-08-13T08:14:51.288Z,87.60
2018-08-13T08:15:24.356Z,87.50
2018-08-13T08:15:57.400Z,88.10
2018-08-13T08:16:30.436Z,87.90
2018-08-13T08:17:03.751Z,88.00
2018-08-13T08:17:36.964Z,87.40
2018-08-13T08:18:10.127Z,87.20
2018-08-13T08:18:43.184Z,87.20
2018-08-13T08:19:16.237Z,87.00
2018-08-13T08:19:50.043Z,86.90
2018-08-13T08:20:23.089Z,87.00
2018-08-13T08:20:56.138Z,86.80
2018-08-13T08:21:29.256Z,86.60
2018-08-13T08:22:02.204Z,86.80
2018-08-13T08:22:35.250Z,86.90
2018-08-13T08:23:08.295Z,87.80
2018-08-13T08:23:41.369Z,87.30
2018-08-13T08:24:14.384Z,87.60
2018-08-13T08:24:47.428Z,88.10
2018-08-13T08:25:20.484Z,88.30
2018-08-13T08:25:53.536Z,88.50
2018-08-13T08:26:26.588Z,87.60
2018-08-13T08:26:59.640Z,87.70
2018-08-13T08:27:32.663Z,88.10
2018-08-13T08:28:06.462Z,88.20
2018-08-13T08:28:40.282Z,88.90
2018-08-13T08:29:13.363Z,88.90
2018-08-13T08:29:46.354Z,88.30
2018-08-13T08:30:19.414Z,88.50
2018-08-13T08:30:52.536Z,88.10
2018-08-13T08:31:25.791Z,88.20
2018-08-13T08:31:58.814Z,88.40
2018-08-13T08:32:31.836Z,88.60
2018-08-13T08:33:04.897Z,88.00
2018-08-13T08:33:38.076Z,88.40
2018-08-13T08:34:11.148Z,87.90
2018-08-13T08:34:44.185Z,88.30
2018-08-13T08:35:17.229Z,88.30
2018-08-13T08:35:50.295Z,88.30
2018-08-13T08:36:23.336Z,88.90
2018-08-13T08:36:56.561Z,88.80
2018-08-13T08:37:29.584Z,88.30
2018-08-13T08:38:02.616Z,89.10
2018-08-13T08:38:35.653Z,88.50
2018-08-13T08:39:08.695Z,88.30
2018-08-13T08:39:41.751Z,88.50
2018-08-13T08:40:14.804Z,88.40
2018-08-13T08:40:47.867Z,88.30
2018-08-13T08:41:20.889Z,88.20
2018-08-13T08:41:54.688Z,88.80
2018-08-13T08:42:28.487Z,88.20
2018-08-13T08:43:01.527Z,88.20
2018-08-13T08:43:34.568Z,88.40
2018-08-13T08:44:07.601Z,88.40
2018-08-13T08:44:41.434Z,88.30
2018-08-13T08:45:14.480Z,88.30
2018-08-13T08:45:47.555Z,87.70
2018-08-13T08:46:20.564Z,87.80
2018-08-13T08:46:53.592Z,87.70
2018-08-13T08:47:26.636Z,88.40
2018-08-13T08:47:59.677Z,88.00
2018-08-13T08:48:33.471Z,88.60
2018-08-13T08:49:06.514Z,88.60
2018-08-13T08:49:39.559Z,89.10
2018-08-13T08:50:12.625Z,88.90
2018-08-13T08:50:45.650Z,88.80
2018-08-13T08:51:18.672Z,88.90
2018-08-13T08:51:51.726Z,89.00
2018-08-13T08:52:24.765Z,89.00
2018-08-13T08:52:58.559Z,89.40
2018-08-13T08:53:31.660Z,89.40
2018-08-13T08:54:04.696Z,89.20
2018-08-13T08:54:37.813Z,88.80
2018-08-13T08:55:10.879Z,88.70
2018-08-13T08:55:43.907Z,89.10
2018-08-13T08:56:16.988Z,89.20
2018-08-13T08:56:50.116Z,89.50
2018-08-13T08:57:23.155Z,88.80
2018-08-13T08:57:56.212Z,88.60
2018-08-13T08:58:29.251Z,88.90
2018-08-13T08:59:02.306Z,89.00
2018-08-13T08:59:35.400Z,89.10
2018-08-13T09:00:09.224Z,88.90
2018-08-13T09:00:42.335Z,88.90
2018-08-13T09:01:15.335Z,88.60
2018-08-13T09:01:48.396Z,88.80
2018-08-13T09:02:21.410Z,88.90
2018-08-13T09:02:54.461Z,88.80
2018-08-13T09:03:27.500Z,89.00
2018-08-13T09:04:00.551Z,89.10
2018-08-13T09:04:33.593Z,89.30
2018-08-13T09:05:06.636Z,89.50
2018-08-13T09:05:39.670Z,89.40
2018-08-13T09:06:12.719Z,89.40
2018-08-13T09:06:45.760Z,89.20
2018-08-13T09:07:19.593Z,89.30
2018-08-13T09:07:52.635Z,89.20
2018-08-13T09:08:25.706Z,89.60
2018-08-13T09:08:58.809Z,89.60
2018-08-13T09:09:31.839Z,89.20
2018-08-13T09:10:04.969Z,88.90
2018-08-13T09:10:38.018Z,89.20
2018-08-13T09:11:11.035Z,88.70
2018-08-13T09:11:44.097Z,89.30
2018-08-13T09:12:18.299Z,88.90
2018-08-13T09:12:51.302Z,89.40
2018-08-13T09:13:24.343Z,89.20
2018-08-13T09:13:57.391Z,89.10
2018-08-13T09:14:30.444Z,89.20
2018-08-13T09:15:03.484Z,89.10
2018-08-13T09:15:36.552Z,89.00
2018-08-13T09:16:09.596Z,89.00
2018-08-13T09:16:42.641Z,89.20
2018-08-13T09:17:16.444Z,89.40
2018-08-13T09:18:15.843Z,89.50
2018-08-13T09:19:14.619Z,89.50
2018-08-13T09:20:13.100Z,90.00
2018-08-13T09:21:07.652Z,90.00
2018-08-13T09:21:41.467Z,90.10
2018-08-13T09:22:14.520Z,90.10
2018-08-13T09:22:59.417Z,90.10
2018-08-13T09:23:45.016Z,90.20
2018-08-13T09:24:29.944Z,90.10
2018-08-13T09:25:28.583Z,90.40
2018-08-13T09:26:13.518Z,90.30
2018-08-13T09:26:58.631Z,90.00
2018-08-13T09:27:43.543Z,90.50
2018-08-13T09:28:28.492Z,90.50
2018-08-13T09:29:28.200Z,90.30
2018-08-13T09:30:13.059Z,90.00
2018-08-13T09:32:29.307Z,90.20
2018-08-13T09:33:14.204Z,90.30
2018-08-13T09:33:59.131Z,90.00
2018-08-13T09:34:32.936Z,90.10
2018-08-13T09:35:06.755Z,90.70
2018-08-13T09:35:39.813Z,91.00
2018-08-13T09:36:12.853Z,90.50
2018-08-13T09:36:45.992Z,90.70
2018-08-13T09:37:19.068Z,90.40
2018-08-13T09:37:52.123Z,90.50
2018-08-13T09:38:25.153Z,90.40
2018-08-13T09:38:58.193Z,90.70
2018-08-13T09:39:32.138Z,90.80
2018-08-13T09:40:05.167Z,90.70
2018-08-13T09:40:38.199Z,91.30
2018-08-13T09:41:11.250Z,90.60
2018-08-13T09:41:44.289Z,90.60
2018-08-13T09:42:17.312Z,90.80
2018-08-13T09:42:50.371Z,90.50
2018-08-13T09:43:23.412Z,90.40
2018-08-13T09:43:56.582Z,90.20
2018-08-13T09:44:29.603Z,90.20
2018-08-13T09:45:03.399Z,90.70
2018-08-13T09:45:36.753Z,90.80
2018-08-13T09:46:09.792Z,90.50
2018-08-13T09:46:42.856Z,90.30
2018-08-13T09:47:16.657Z,90.50
2018-08-13T09:47:49.692Z,90.40
2018-08-13T09:48:22.724Z,90.20
2018-08-13T09:48:55.792Z,90.10
2018-08-13T09:49:28.832Z,90.10
2018-08-13T09:50:01.868Z,90.40
2018-08-13T09:50:34.912Z,90.60
2018-08-13T09:51:08.115Z,90.50
2018-08-13T09:51:41.151Z,90.60
2018-08-13T09:52:14.198Z,90.00
2018-08-13T09:52:47.242Z,90.30
2018-08-13T09:53:20.265Z,90.40
2018-08-13T09:53:54.570Z,90.40
2018-08-13T09:54:27.616Z,90.20
2018-08-13T09:55:00.651Z,90.30
2018-08-13T09:55:33.697Z,90.40
2018-08-13T09:56:06.730Z,90.30
2018-08-13T09:56:39.764Z,90.50
2018-08-13T09:57:12.810Z,90.20
2018-08-13T09:57:46.618Z,90.00
2018-08-13T09:58:19.679Z,90.00
2018-08-13T09:58:53.468Z,90.40
2018-08-13T09:59:26.508Z,90.40
2018-08-13T09:59:59.535Z,90.20
2018-08-13T10:00:32.591Z,90.30
2018-08-13T10:01:05.703Z,90.10
2018-08-13T10:01:38.876Z,90.00
2018-08-13T10:02:11.928Z,89.60
2018-08-13T10:02:45.716Z,88.70
2018-08-13T10:03:18.748Z,88.70
2018-08-13T10:03:51.798Z,89.70
2018-08-13T10:04:24.825Z,89.30
2018-08-13T10:04:57.863Z,90.60
2018-08-13T10:05:30.926Z,90.20
2018-08-13T10:06:03.967Z,90.90
2018-08-13T10:06:37.776Z,89.80
2018-08-13T10:07:10.876Z,89.90
2018-08-13T10:07:43.914Z,89.90
2018-08-13T10:08:16.961Z,89.20
2018-08-13T10:08:50.020Z,89.90
2018-08-13T10:09:23.128Z,90.00
2018-08-13T10:09:56.841Z,90.20
2018-08-13T10:10:29.890Z,90.20
2018-08-13T10:11:03.718Z,90.20
2018-08-13T10:11:36.751Z,90.20
2018-08-13T10:12:09.805Z,90.20
2018-08-13T10:12:42.848Z,90.40
2018-08-13T10:13:15.886Z,90.40
2018-08-13T10:13:49.696Z,90.50
2018-08-13T10:14:23.243Z,90.50
2018-08-13T10:14:56.272Z,90.40
2018-08-13T10:15:29.316Z,90.40
2018-08-13T10:16:03.137Z,90.80
2018-08-13T10:16:36.195Z,90.80
2018-08-13T10:17:09.239Z,90.20
2018-08-13T10:17:42.321Z,90.40
2018-08-13T10:18:15.339Z,90.40
2018-08-13T10:18:48.364Z,90.50
2018-08-13T10:19:21.415Z,90.60
2018-08-13T10:19:54.447Z,90.80
2018-08-13T10:20:27.480Z,90.40
2018-08-13T10:21:00.528Z,90.50
2018-08-13T10:21:33.565Z,90.40
2018-08-13T10:22:06.624Z,90.40
2018-08-13T10:22:39.631Z,90.60
2018-08-13T10:23:12.682Z,90.90
2018-08-13T10:23:45.744Z,90.70
2018-08-13T10:24:18.768Z,90.70
2018-08-13T10:24:51.803Z,90.50
2018-08-13T10:25:24.836Z,90.70
2018-08-13T10:25:58.655Z,90.70
2018-08-13T10:26:31.671Z,90.80
2018-08-13T10:27:04.697Z,90.80
2018-08-13T10:27:37.744Z,90.90
2018-08-13T10:28:10.790Z,90.70
2018-08-13T10:28:43.845Z,90.70
2018-08-13T10:29:16.867Z,90.80
2018-08-13T10:29:49.988Z,90.50
2018-08-13T10:30:22.960Z,90.80
2018-08-13T10:30:56.809Z,90.60
2018-08-13T10:31:29.897Z,90.60
2018-08-13T10:32:02.921Z,90.60
2018-08-13T10:32:36.764Z,90.80
2018-08-13T10:33:09.824Z,90.80
2018-08-13T10:33:42.875Z,91.10
2018-08-13T10:34:15.903Z,91.10
2018-08-13T10:34:48.945Z,91.00
2018-08-13T10:35:21.976Z,90.70
2018-08-13T10:35:55.824Z,90.90
2018-08-13T10:36:28.882Z,90.90
2018-08-13T10:37:01.924Z,91.00
2018-08-13T10:37:35.753Z,91.20
2018-08-13T10:38:08.788Z,91.20
2018-08-13T10:38:42.581Z,91.30
2018-08-13T10:39:16.407Z,91.10
2018-08-13T10:39:49.414Z,91.00
2018-08-13T10:40:22.453Z,91.10
2018-08-13T10:40:55.499Z,90.90
2018-08-13T10:41:29.300Z,90.70
2018-08-13T10:42:02.363Z,90.70
2018-08-13T10:42:35.391Z,90.40
2018-08-13T10:43:08.455Z,90.70
2018-08-13T10:43:41.566Z,90.60
2018-08-13T10:44:14.545Z,90.60
2018-08-13T10:44:47.620Z,90.90
2018-08-13T10:45:20.615Z,90.90
2018-08-13T10:45:53.675Z,90.90
2018-08-13T10:46:27.495Z,91.40
2018-08-13T10:47:00.550Z,91.00
2018-08-13T10:47:34.360Z,91.20
2018-08-13T10:48:07.422Z,91.10
2018-08-13T10:48:40.440Z,91.20
2018-08-13T10:49:13.515Z,91.20
2018-08-13T10:49:46.565Z,91.20
2018-08-13T10:50:19.591Z,91.20
2018-08-13T10:50:52.747Z,90.90
2018-08-13T10:51:25.795Z,91.00
2018-08-13T10:51:58.822Z,91.10
2018-08-13T10:52:31.866Z,91.30
2018-08-13T10:53:04.916Z,91.10
2018-08-13T10:53:37.960Z,91.00
2018-08-13T10:54:11.017Z,91.10
2018-08-13T10:54:44.057Z,91.00
2018-08-13T10:55:17.089Z,90.60
2018-08-13T10:55:50.983Z,90.60
2018-08-13T10:56:24.026Z,90.60
2018-08-13T10:56:57.819Z,90.60
2018-08-13T10:57:30.913Z,90.70
2018-08-13T10:58:03.943Z,90.90
2018-08-13T10:58:37.044Z,90.90
2018-08-13T10:59:10.071Z,90.90
2018-08-13T10:59:43.103Z,90.90
2018-08-13T11:00:16.158Z,91.10
2018-08-13T11:00:49.189Z,90.60
2018-08-13T11:01:22.302Z,90.60
2018-08-13T11:01:55.313Z,91.00
2018-08-13T11:02:28.336Z,91.10
2018-08-13T11:03:01.484Z,91.40
2018-08-13T11:03:34.427Z,91.10
2018-08-13T11:04:07.486Z,91.20
2018-08-13T11:04:40.543Z,90.90
2018-08-13T11:05:13.611Z,91.10
2018-08-13T11:05:46.640Z,91.00
2018-08-13T11:06:19.673Z,91.60
2018-08-13T11:06:52.868Z,91.00
2018-08-13T11:07:25.924Z,91.10
2018-08-13T11:07:58.961Z,90.90
2018-08-13T11:08:32.777Z,91.20
2018-08-13T11:09:05.808Z,91.20
2018-08-13T11:09:38.847Z,91.30
2018-08-13T11:10:11.937Z,91.20
2018-08-13T11:10:44.925Z,91.20
2018-08-13T11:11:17.963Z,91.30
2018-08-13T11:11:51.044Z,92.30
2018-08-13T11:12:24.119Z,91.10
2018-08-13T11:12:57.152Z,91.10
2018-08-13T11:13:31.015Z,91.10
2018-08-13T11:14:04.027Z,91.10
2018-08-13T11:14:37.091Z,91.00
2018-08-13T11:15:10.917Z,91.20
2018-08-13T11:15:43.950Z,91.20
2018-08-13T11:16:17.635Z,91.20
2018-08-13T11:16:51.461Z,91.10
2018-08-13T11:17:24.498Z,91.20
2018-08-13T11:17:57.527Z,91.30
2018-08-13T11:18:30.568Z,91.10
2018-08-13T11:19:04.367Z,91.70
2018-08-13T11:19:38.170Z,91.20
2018-08-13T11:20:11.204Z,91.20
2018-08-13T11:20:44.255Z,91.00
2018-08-13T11:21:17.300Z,91.40
2018-08-13T11:21:50.579Z,91.30
2018-08-13T11:22:23.512Z,91.40
2018-08-13T11:22:56.561Z,91.40
2018-08-13T11:23:30.376Z,91.20
2018-08-13T11:24:03.410Z,91.20
2018-08-13T11:24:36.481Z,91.60
2018-08-13T11:25:09.507Z,91.30
2018-08-13T11:25:43.303Z,91.30
2018-08-13T11:26:17.143Z,91.40
2018-08-13T11:26:50.193Z,91.40
2018-08-13T11:27:23.238Z,91.70
2018-08-13T11:27:56.265Z,91.50
2018-08-13T11:28:29.359Z,91.60
2018-08-13T11:29:02.355Z,91.70
2018-08-13T11:29:35.412Z,91.70
2018-08-13T11:30:08.571Z,91.80
2018-08-13T11:30:41.772Z,91.80
2018-08-13T11:31:14.877Z,92.20
2018-08-13T11:31:47.871Z,92.10
2018-08-13T11:32:20.927Z,92.20
2018-08-13T11:32:53.963Z,92.40
2018-08-13T11:33:27.010Z,92.30
2018-08-13T11:34:00.037Z,92.60
2018-08-13T11:34:33.090Z,92.90
2018-08-13T11:35:06.125Z,92.60
2018-08-13T11:35:39.153Z,92.20
2018-08-13T11:36:12.208Z,92.10
2018-08-13T11:36:45.268Z,92.60
2018-08-13T11:37:19.722Z,92.70
2018-08-13T11:37:52.758Z,92.40
2018-08-13T11:38:25.787Z,92.10
2018-08-13T11:38:59.612Z,92.10
2018-08-13T11:39:32.650Z,92.10
2018-08-13T11:40:06.455Z,92.10
2018-08-13T11:40:39.516Z,92.20
2018-08-13T11:41:12.549Z,92.90
2018-08-13T11:41:45.908Z,92.50
2018-08-13T11:42:18.943Z,92.50
2018-08-13T11:42:52.267Z,92.10
2018-08-13T11:43:25.331Z,92.50
2018-08-13T11:43:58.428Z,92.40
2018-08-13T11:44:31.456Z,92.20
2018-08-13T11:45:04.491Z,92.60
2018-08-13T11:45:37.525Z,93.20
2018-08-13T11:46:10.551Z,93.50
2018-08-13T11:46:43.587Z,93.10
2018-08-13T11:47:16.639Z,93.20
2018-08-13T11:47:50.475Z,93.10
2018-08-13T11:48:23.746Z,93.10
2018-08-13T11:48:57.508Z,92.70
2018-08-13T11:49:30.555Z,92.70
2018-08-13T11:50:03.595Z,93.00
2018-08-13T11:50:36.646Z,93.10
2018-08-13T11:51:09.655Z,93.50
2018-08-13T11:51:42.760Z,93.90
2018-08-13T11:52:15.785Z,93.90
2018-08-13T11:52:48.816Z,93.70
2018-08-13T11:53:22.617Z,93.20
2018-08-13T11:53:56.419Z,93.60
2018-08-13T11:54:29.468Z,93.60
2018-08-13T11:55:02.518Z,93.30
2018-08-13T11:55:36.314Z,94.00
2018-08-13T11:56:09.596Z,93.90
2018-08-13T11:56:42.663Z,93.90
2018-08-13T11:57:15.712Z,94.40
2018-08-13T11:57:48.748Z,93.90
2018-08-13T11:58:21.940Z,93.40
2018-08-13T11:58:55.728Z,94.90
2018-08-13T11:59:28.767Z,94.80
2018-08-13T12:00:01.816Z,94.40
2018-08-13T12:00:34.848Z,94.20
2018-08-13T12:01:08.001Z,94.40
2018-08-13T12:01:40.964Z,94.20
2018-08-13T12:02:14.001Z,95.10
2018-08-13T12:02:47.040Z,94.30
2018-08-13T12:03:20.852Z,93.90
2018-08-13T12:03:53.896Z,93.90
2018-08-13T12:04:28.435Z,93.90
2018-08-13T12:05:01.508Z,93.90
2018-08-13T12:05:34.539Z,94.10
2018-08-13T12:06:07.580Z,94.70
2018-08-13T12:06:40.647Z,94.00
2018-08-13T12:07:13.672Z,94.20
2018-08-13T12:07:46.711Z,94.60
2018-08-13T12:08:19.769Z,94.70
2018-08-13T12:08:53.560Z,94.60
2018-08-13T12:09:26.583Z,94.60
2018-08-13T12:09:59.629Z,94.90
2018-08-13T12:10:32.693Z,94.70
2018-08-13T12:11:05.729Z,94.80
2018-08-13T12:11:39.543Z,95.00
2018-08-13T12:12:12.595Z,94.90
2018-08-13T12:12:45.619Z,95.00
2018-08-13T12:13:18.664Z,94.70